Time;durP1;ratioP1;P1;durP2;ratioP2;P2;SDS_P1;SDS_P2;PMS_P1;PMS_P2;Temp;Humidity;BMP_temperature;BMP_pressure;BME280_temperature;BME280_humidity;BME280_pressure;Samples;Min_cycle;Max_cycle;Signal;HPM_P1;HPM_P2
2022/01/26 00:00:18;;;;;;;;;;;;;;;2.60;86.12;103341.63;5084954;28;19928;-75
2022/01/26 00:08:06;;;;;;;;;;;;;;;2.67;84.87;103329.69;5085937;28;19924;-73
2022/01/26 00:10:33;;;;;;;;;;;;;;;2.61;85.22;103323.53;5086945;28;19916;-80
2022/01/26 00:12:59;;;;;;;;;;;;;;;2.64;85.38;103330.50;5088726;28;20609;-78
2022/01/26 00:15:24;;;;;;;;;;;;;;;2.63;85.21;103327.06;5087171;28;19980;-80
2022/01/26 00:17:52;;;;;;;;;;;;;;;2.59;86.02;103329.53;5088208;28;19927;-78
2022/01/26 00:20:24;;;;;;;;;;;;;;;2.56;85.84;103335.47;5083894;28;19924;-72
2022/01/26 00:41:09;;;;;;;;;;;;;;;2.56;85.49;103290.50;5076459;28;20362;-78
2022/01/26 00:43:36;;;;;;;;;;;;;;;2.67;85.26;103289.06;5086957;28;20012;-79
2022/01/26 00:46:03;;;;;;;;;;;;;;;2.63;86.00;103306.28;5076940;28;19925;-78
2022/01/26 00:48:31;;;;;;;;;;;;;;;2.74;85.13;103303.09;5081783;28;20359;-79
2022/01/26 00:50:59;;;;;;;;;;;;;;;2.74;84.75;103303.09;5087279;28;19916;-77
2022/01/26 00:53:31;;;;;;;;;;;;;;;2.71;84.93;103295.22;5085810;28;19916;-77
2022/01/26 00:55:57;;;;;;;;;;;;;;;2.77;84.34;103287.56;5088818;28;19927;-79
2022/01/26 00:58:22;;;;;;;;;;;;;;;2.66;84.71;103278.63;5085050;28;19916;-79
2022/01/26 01:00:48;;;;;;;;;;;;;;;2.69;84.92;103270.94;5084415;28;19924;-79
2022/01/26 01:03:13;;;;;;;;;;;;;;;2.62;84.65;103268.19;5079154;28;19965;-78
2022/01/26 01:08:22;;;;;;;;;;;;;;;2.63;84.96;103259.56;5087700;28;19916;-79
2022/01/26 01:10:49;;;;;;;;;;;;;;;2.67;84.41;103260.53;5089776;28;20003;-76
2022/01/26 01:13:18;;;;;;;;;;;;;;;2.62;84.58;103268.19;5089719;28;20027;-78
2022/01/26 01:15:44;;;;;;;;;;;;;;;2.61;84.78;103263.84;5090058;28;19928;-76
2022/01/26 01:18:18;;;;;;;;;;;;;;;2.75;83.60;103252.94;5088758;28;19928;-78
2022/01/26 01:34:07;;;;;;;;;;;;;;;2.68;84.34;103251.91;5089628;28;20325;-78
2022/01/26 01:36:34;;;;;;;;;;;;;;;2.63;84.59;103248.28;5081519;28;19916;-78
2022/01/26 01:38:59;;;;;;;;;;;;;;;2.65;84.21;103240.56;5098728;28;19916;-79
2022/01/26 01:41:25;;;;;;;;;;;;;;;2.66;84.00;103250.06;5088005;28;19947;-80
2022/01/26 01:43:50;;;;;;;;;;;;;;;2.54;84.15;103225.56;5091389;28;20384;-79
2022/01/26 01:46:16;;;;;;;;;;;;;;;2.64;84.15;103231.88;5091809;28;19916;-78
2022/01/26 01:48:41;;;;;;;;;;;;;;;2.60;84.36;103224.84;5090587;28;20009;-74
2022/01/26 01:51:10;;;;;;;;;;;;;;;2.79;83.26;103208.00;5089349;28;19916;-74
2022/01/26 01:56:18;;;;;;;;;;;;;;;2.64;84.44;103216.31;5078333;28;20293;-75
2022/01/26 01:58:43;;;;;;;;;;;;;;;2.62;84.46;103229.25;5088864;28;19923;-74
2022/01/26 02:01:08;;;;;;;;;;;;;;;2.59;84.47;103230.91;5089755;28;19920;-74
2022/01/26 02:03:34;;;;;;;;;;;;;;;2.54;84.99;103222.97;5088943;28;19941;-74
2022/01/26 02:05:59;;;;;;;;;;;;;;;2.68;84.48;103207.78;5090444;28;19916;-77
2022/01/26 02:08:25;;;;;;;;;;;;;;;2.68;84.22;103219.84;5090784;28;19920;-77
2022/01/26 02:10:50;;;;;;;;;;;;;;;2.74;84.43;103214.84;5092255;28;19927;-78
2022/01/26 02:56:02;;;;;;;;;;;;;;;2.45;86.52;103163.06;5088090;28;19920;-76
2022/01/26 03:04:01;;;;;;;;;;;;;;;2.39;86.74;103183.69;5088056;28;19924;-75
2022/01/26 03:06:34;;;;;;;;;;;;;;;2.43;86.83;103165.63;5084099;28;19916;-73
2022/01/26 03:09:09;;;;;;;;;;;;;;;2.34;86.69;103174.88;5087880;28;20011;-78
2022/01/26 03:11:37;;;;;;;;;;;;;;;2.30;87.12;103185.22;5087639;28;20463;-79
2022/01/26 03:14:13;;;;;;;;;;;;;;;2.35;87.10;103174.94;5086612;28;20419;-79
2022/01/26 03:16:45;;;;;;;;;;;;;;;2.32;86.67;103180.06;5089419;28;19969;-78
2022/01/26 03:29:58;;;;;;;;;;;;;;;2.30;87.48;103186.91;5084227;28;19938;-79
2022/01/26 03:35:13;;;;;;;;;;;;;;;2.35;87.52;103200.00;5086546;28;20011;-72
2022/01/26 03:37:39;;;;;;;;;;;;;;;2.29;88.28;103185.16;5066416;28;19917;-78
2022/01/26 03:40:12;;;;;;;;;;;;;;;2.34;88.03;103193.06;5071553;28;19921;-73
2022/01/26 03:42:38;;;;;;;;;;;;;;;2.31;88.54;103209.41;5086985;28;19969;-72
2022/01/26 03:45:03;;;;;;;;;;;;;;;2.30;88.41;103212.84;5086227;28;20514;-73
2022/01/26 03:47:29;;;;;;;;;;;;;;;2.29;88.91;103217.19;5093674;27;19974;-73
2022/01/26 03:49:54;;;;;;;;;;;;;;;2.31;88.87;103244.03;5098634;28;19924;-72
2022/01/26 03:52:19;;;;;;;;;;;;;;;2.35;88.60;103241.50;5096217;28;19977;-73
2022/01/26 03:54:44;;;;;;;;;;;;;;;2.41;88.99;103241.69;5092473;28;19924;-75
2022/01/26 03:57:10;;;;;;;;;;;;;;;2.35;88.69;103245.00;5108655;27;20639;-77
2022/01/26 03:59:35;;;;;;;;;;;;;;;2.34;89.13;103250.13;5111633;28;20379;-83
2022/01/26 04:02:00;;;;;;;;;;;;;;;2.36;89.47;103243.25;5109293;27;19958;-81
2022/01/26 04:04:26;;;;;;;;;;;;;;;2.38;89.51;103241.59;5114235;28;19922;-81
2022/01/26 04:06:51;;;;;;;;;;;;;;;2.40;89.03;103229.53;5111061;28;19920;-80
2022/01/26 04:09:18;;;;;;;;;;;;;;;2.38;89.58;103213.06;5095894;28;19920;-77
2022/01/26 04:11:48;;;;;;;;;;;;;;;2.35;89.82;103200.91;5070697;28;19985;-82
2022/01/26 04:14:16;;;;;;;;;;;;;;;2.34;89.74;103187.88;5067302;28;20056;-74
2022/01/26 04:16:42;;;;;;;;;;;;;;;2.32;89.94;103185.25;5069401;28;19928;-73
2022/01/26 04:19:09;;;;;;;;;;;;;;;2.30;90.06;103181.72;5067226;28;20289;-75
2022/01/26 04:24:21;;;;;;;;;;;;;;;2.34;89.80;103178.38;5076777;28;20049;-74
2022/01/26 04:29:30;;;;;;;;;;;;;;;2.36;90.06;103204.34;5085550;28;19920;-75
2022/01/26 04:31:56;;;;;;;;;;;;;;;2.35;90.20;103200.00;5087495;28;19916;-72
2022/01/26 04:34:23;;;;;;;;;;;;;;;2.35;90.16;103198.31;5087303;28;20005;-79
2022/01/26 04:38:10;;;;;;;;;;;;;;;2.35;90.40;103190.53;5076662;28;19940;-73
2022/01/26 04:42:20;;;;;;;;;;;;;;;2.35;90.85;103177.53;5084919;28;20327;-72
2022/01/26 04:47:26;;;;;;;;;;;;;;;2.30;90.97;103156.69;5068128;28;19927;-80
2022/01/26 04:49:51;;;;;;;;;;;;;;;2.30;91.11;103166.16;5070646;28;19920;-80
2022/01/26 04:52:17;;;;;;;;;;;;;;;2.35;91.21;103174.06;5068515;28;20077;-71
2022/01/26 04:54:42;;;;;;;;;;;;;;;2.34;91.38;103173.19;5089053;28;19923;-72
2022/01/26 04:57:07;;;;;;;;;;;;;;;2.35;91.43;103174.06;5090570;28;19922;-72
2022/01/26 04:59:33;;;;;;;;;;;;;;;2.35;91.69;103172.34;5089742;28;20023;-73
2022/01/26 05:01:58;;;;;;;;;;;;;;;2.32;91.56;103149.78;5090478;28;19916;-72
2022/01/26 05:04:24;;;;;;;;;;;;;;;2.36;91.83;103165.44;5090707;28;19951;-79
2022/01/26 05:06:49;;;;;;;;;;;;;;;2.39;91.95;103175.91;5091687;28;19981;-79
2022/01/26 05:09:15;;;;;;;;;;;;;;;2.39;91.90;103165.53;5091306;28;19916;-80
2022/01/26 05:11:41;;;;;;;;;;;;;;;2.40;92.02;103181.13;5070802;28;19920;-77
2022/01/26 05:14:07;;;;;;;;;;;;;;;2.40;92.14;103188.03;5070170;28;19924;-76
2022/01/26 05:16:32;;;;;;;;;;;;;;;2.44;92.43;103200.22;5071465;28;19993;-76
2022/01/26 05:18:58;;;;;;;;;;;;;;;2.49;92.29;103190.84;5079624;28;20015;-80
2022/01/26 05:21:24;;;;;;;;;;;;;;;2.52;92.74;103192.66;5091452;28;19920;-77
2022/01/26 05:23:49;;;;;;;;;;;;;;;2.57;92.59;103196.25;5093659;28;19985;-76
2022/01/26 05:26:15;;;;;;;;;;;;;;;2.54;92.47;103185.78;5091140;28;19944;-75
2022/01/26 05:28:40;;;;;;;;;;;;;;;2.56;92.85;103184.97;5091846;28;19920;-80
2022/01/26 05:31:06;;;;;;;;;;;;;;;2.57;92.70;103176.34;5091755;28;19916;-81
2022/01/26 05:33:31;;;;;;;;;;;;;;;2.57;92.79;103178.94;5091985;28;20387;-81
2022/01/26 05:35:57;;;;;;;;;;;;;;;2.57;92.84;103176.34;5087425;28;19927;-76
2022/01/26 05:38:22;;;;;;;;;;;;;;;2.60;93.17;103183.31;5071118;28;19936;-73
2022/01/26 05:40:47;;;;;;;;;;;;;;;2.61;93.25;103177.28;5079112;28;19978;-73
2022/01/26 05:43:15;;;;;;;;;;;;;;;2.65;93.42;103170.50;5089733;28;19951;-78
2022/01/26 05:45:41;;;;;;;;;;;;;;;2.68;93.67;103181.81;5090204;28;19920;-73
2022/01/26 05:48:10;;;;;;;;;;;;;;;2.69;93.86;103180.97;5103335;28;19920;-74
2022/01/26 05:50:37;;;;;;;;;;;;;;;2.75;93.44;103177.66;5098213;28;19975;-73
2022/01/26 05:53:03;;;;;;;;;;;;;;;2.80;93.29;103172.56;5106029;27;19915;-77
2022/01/26 05:55:28;;;;;;;;;;;;;;;2.85;93.27;103170.94;5092730;28;19920;-73
2022/01/26 05:57:53;;;;;;;;;;;;;;;2.88;92.80;103169.28;5106138;27;20385;-74
2022/01/26 06:00:18;;;;;;;;;;;;;;;3.01;92.69;103154.88;5088416;28;19920;-79
2022/01/26 06:02:44;;;;;;;;;;;;;;;2.97;92.02;103152.19;5091861;28;19962;-82
2022/01/26 06:05:10;;;;;;;;;;;;;;;2.95;92.07;103144.34;5091301;28;19916;-77
2022/01/26 06:07:35;;;;;;;;;;;;;;;2.94;92.00;103148.66;5089892;28;20346;-80
2022/01/26 06:10:01;;;;;;;;;;;;;;;2.90;92.18;103154.63;5090509;28;19924;-79
2022/01/26 06:12:26;;;;;;;;;;;;;;;3.00;91.99;103152.22;5090673;28;19916;-81
2022/01/26 06:14:52;;;;;;;;;;;;;;;2.94;91.64;103151.28;5091218;28;19984;-78
2022/01/26 06:17:18;;;;;;;;;;;;;;;2.91;91.77;103147.72;5089888;28;19924;-78
2022/01/26 06:19:43;;;;;;;;;;;;;;;2.91;91.56;103150.31;5091698;28;20300;-78
2022/01/26 06:22:08;;;;;;;;;;;;;;;2.86;90.94;103137.25;5091326;28;19970;-79
2022/01/26 06:24:34;;;;;;;;;;;;;;;2.85;91.20;103135.50;5077146;28;20641;-79
2022/01/26 06:26:59;;;;;;;;;;;;;;;2.85;91.12;103142.38;5070894;28;19920;-74
2022/01/26 06:29:24;;;;;;;;;;;;;;;2.83;90.92;103136.28;5068591;28;19920;-79
2022/01/26 06:31:49;;;;;;;;;;;;;;;2.77;90.96;103157.78;5071349;28;20270;-76
2022/01/26 06:34:15;;;;;;;;;;;;;;;2.82;90.70;103168.25;5072969;28;20385;-77
2022/01/26 06:39:23;;;;;;;;;;;;;;;2.77;90.97;103168.16;5090033;28;20273;-78
2022/01/26 06:41:52;;;;;;;;;;;;;;;2.72;90.42;103169.78;5090031;28;20389;-76
2022/01/26 06:49:40;;;;;;;;;;;;;;;2.69;90.05;103156.72;5088330;28;20323;-75
2022/01/26 06:52:06;;;;;;;;;;;;;;;2.70;89.70;103174.06;5089635;28;19917;-76
2022/01/26 06:54:31;;;;;;;;;;;;;;;2.83;89.68;103173.50;5091293;28;20008;-76
2022/01/26 06:56:56;;;;;;;;;;;;;;;2.72;89.79;103191.41;5088922;28;19920;-75
2022/01/26 06:59:24;;;;;;;;;;;;;;;2.69;89.72;103200.84;5087121;28;19916;-75
2022/01/26 07:01:49;;;;;;;;;;;;;;;2.71;89.26;103197.44;5090348;28;19946;-76
2022/01/26 07:04:14;;;;;;;;;;;;;;;2.67;89.55;103192.13;5090191;28;20402;-76
2022/01/26 07:06:40;;;;;;;;;;;;;;;2.67;89.73;103194.72;5088801;28;19998;-76
2022/01/26 07:09:05;;;;;;;;;;;;;;;2.67;90.04;103198.22;5088832;28;20278;-77
2022/01/26 07:11:30;;;;;;;;;;;;;;;2.68;89.90;103204.28;5089239;28;19940;-77
2022/01/26 07:13:58;;;;;;;;;;;;;;;2.68;90.09;103209.47;5088429;28;20384;-76
2022/01/26 07:21:45;;;;;;;;;;;;;;;2.63;90.77;103201.56;5090613;27;19928;-75
2022/01/26 07:24:10;;;;;;;;;;;;;;;2.70;90.35;103207.78;5087551;28;20349;-76
2022/01/26 07:26:37;;;;;;;;;;;;;;;2.69;90.12;103206.03;5091454;28;19916;-76
2022/01/26 07:29:07;;;;;;;;;;;;;;;2.68;90.20;103194.78;5088250;28;19923;-76
2022/01/26 07:31:34;;;;;;;;;;;;;;;2.65;90.31;103206.81;5091543;28;19940;-76
2022/01/26 07:33:59;;;;;;;;;;;;;;;2.61;90.26;103204.16;5088627;28;20428;-76
2022/01/26 07:36:25;;;;;;;;;;;;;;;2.68;89.90;103205.19;5071206;27;19917;-77
2022/01/26 07:38:52;;;;;;;;;;;;;;;2.70;89.99;103207.78;5068741;28;19924;-76
2022/01/26 07:41:18;;;;;;;;;;;;;;;2.69;89.80;103198.25;5082201;28;20511;-77
2022/01/26 07:43:43;;;;;;;;;;;;;;;2.66;89.79;103198.16;5101678;28;19916;-75
2022/01/26 07:46:09;;;;;;;;;;;;;;;2.66;89.68;103191.28;5089472;28;19920;-76
2022/01/26 07:48:34;;;;;;;;;;;;;;;2.69;89.13;103175.78;5090984;28;19920;-75
2022/01/26 07:51:00;;;;;;;;;;;;;;;2.70;89.14;103177.50;5087444;28;19922;-75
2022/01/26 07:53:25;;;;;;;;;;;;;;;2.69;88.76;103180.09;5089190;28;20005;-75
2022/01/26 07:55:50;;;;;;;;;;;;;;;2.67;89.37;103197.34;5088748;28;19962;-77
2022/01/26 07:58:17;;;;;;;;;;;;;;;2.74;89.05;103187.13;5088585;28;20007;-78
2022/01/26 08:00:43;;;;;;;;;;;;;;;2.72;89.46;103181.03;5081261;28;19925;-76
2022/01/26 08:03:08;;;;;;;;;;;;;;;2.69;89.33;103193.06;5080085;28;19945;-78
2022/01/26 08:05:33;;;;;;;;;;;;;;;2.68;89.91;103193.91;5085965;28;20320;-77
2022/01/26 08:07:58;;;;;;;;;;;;;;;2.68;90.09;103193.91;5085643;28;19923;-77
2022/01/26 08:10:24;;;;;;;;;;;;;;;2.67;90.29;103185.25;5083864;28;20327;-76
2022/01/26 08:12:49;;;;;;;;;;;;;;;2.67;90.81;103182.66;5079163;28;19928;-77
2022/01/26 08:15:15;;;;;;;;;;;;;;;2.68;90.72;103184.41;5089643;28;19973;-77
2022/01/26 08:17:40;;;;;;;;;;;;;;;2.67;90.77;103181.75;5094685;28;20443;-76
2022/01/26 08:20:07;;;;;;;;;;;;;;;2.68;91.30;103183.50;5092839;28;20415;-77
2022/01/26 08:22:33;;;;;;;;;;;;;;;2.67;91.54;103185.25;5103594;28;19962;-76
2022/01/26 08:24:58;;;;;;;;;;;;;;;2.67;91.73;103189.53;5085028;28;19959;-76
2022/01/26 08:27:27;;;;;;;;;;;;;;;2.74;91.62;103184.53;5080806;28;20424;-75
2022/01/26 08:29:59;;;;;;;;;;;;;;;2.77;91.77;103178.53;5084575;28;19928;-75
2022/01/26 08:32:24;;;;;;;;;;;;;;;2.74;91.46;103191.47;5102104;28;20316;-75
2022/01/26 08:34:49;;;;;;;;;;;;;;;2.77;91.65;103191.53;5077383;28;19916;-75
2022/01/26 08:37:15;;;;;;;;;;;;;;;2.81;91.51;103195.97;5067625;28;20364;-76
2022/01/26 08:39:40;;;;;;;;;;;;;;;2.81;91.07;103190.75;5081179;28;19932;-75
2022/01/26 08:42:06;;;;;;;;;;;;;;;2.79;91.00;103192.44;5092186;28;19931;-75
2022/01/26 08:44:33;;;;;;;;;;;;;;;2.80;91.13;103193.34;5095846;28;19920;-76
2022/01/26 08:46:59;;;;;;;;;;;;;;;2.82;91.32;103195.13;5090564;28;19920;-76
2022/01/26 08:52:05;;;;;;;;;;;;;;;2.86;91.29;103203.84;5098609;28;19916;-75
2022/01/26 08:54:30;;;;;;;;;;;;;;;2.84;91.46;103197.75;5099483;27;19920;-75
2022/01/26 08:56:55;;;;;;;;;;;;;;;2.82;91.46;103202.00;5095474;28;19923;-76
2022/01/26 08:59:22;;;;;;;;;;;;;;;2.88;91.68;103200.44;5087952;28;19950;-75
2022/01/26 09:01:48;;;;;;;;;;;;;;;2.88;91.51;103197.84;5101337;28;20000;-76
2022/01/26 09:04:13;;;;;;;;;;;;;;;2.88;91.49;103200.44;5085981;28;19966;-75
2022/01/26 09:06:50;;;;;;;;;;;;;;;2.88;91.61;103204.78;5104718;28;20610;-76
2022/01/26 09:09:16;;;;;;;;;;;;;;;2.87;91.81;103196.09;5086924;28;20463;-78
2022/01/26 09:11:42;;;;;;;;;;;;;;;2.87;92.04;103198.69;5084038;28;20312;-79
2022/01/26 09:14:10;;;;;;;;;;;;;;;2.91;92.11;103200.53;5087102;28;20005;-77
2022/01/26 09:16:35;;;;;;;;;;;;;;;2.88;92.10;103204.78;5088088;28;19924;-78
2022/01/26 09:19:09;;;;;;;;;;;;;;;2.93;92.20;103201.44;5088020;28;20320;-76
2022/01/26 09:21:35;;;;;;;;;;;;;;;2.97;91.98;103199.78;5094540;28;19920;-77
2022/01/26 09:24:00;;;;;;;;;;;;;;;3.00;91.70;103206.75;5100320;28;20269;-77
2022/01/26 09:26:25;;;;;;;;;;;;;;;3.03;91.33;103199.06;5108796;27;19924;-77
2022/01/26 09:28:51;;;;;;;;;;;;;;;3.05;90.96;103206.03;5113538;27;19947;-78
2022/01/26 09:31:16;;;;;;;;;;;;;;;3.08;90.92;103202.66;5111133;27;20010;-77
2022/01/26 09:33:41;;;;;;;;;;;;;;;3.08;90.80;103208.72;5113381;27;19963;-76
2022/01/26 09:36:07;;;;;;;;;;;;;;;3.07;90.65;103199.16;5087128;28;19916;-78
2022/01/26 09:38:32;;;;;;;;;;;;;;;3.09;91.30;103194.88;5074717;28;19920;-76
2022/01/26 09:40:58;;;;;;;;;;;;;;;3.12;90.61;103188.88;5088547;28;19924;-77
2022/01/26 09:43:23;;;;;;;;;;;;;;;3.07;90.69;103180.13;5090796;28;19917;-77
2022/01/26 09:45:48;;;;;;;;;;;;;;;3.02;91.37;103181.72;5091925;28;20385;-75
2022/01/26 09:48:14;;;;;;;;;;;;;;;3.06;91.47;103191.34;5086659;28;20381;-76
2022/01/26 09:53:27;;;;;;;;;;;;;;;3.21;91.36;103202.06;5072190;28;20797;-75
2022/01/26 09:55:53;;;;;;;;;;;;;;;3.33;90.93;103205.78;5079631;28;20015;-75
2022/01/26 09:58:20;;;;;;;;;;;;;;;3.33;91.21;103211.88;5088984;28;20015;-76
2022/01/26 10:00:45;;;;;;;;;;;;;;;3.38;91.38;103214.56;5090607;28;20412;-78
2022/01/26 10:03:11;;;;;;;;;;;;;;;3.42;91.12;103212.91;5089608;28;19928;-76
2022/01/26 10:05:51;;;;;;;;;;;;;;;3.37;91.72;103207.59;5091150;28;20292;-78
2022/01/26 10:19:03;;;;;;;;;;;;;;;3.34;92.06;103208.41;5088386;28;19926;-76
2022/01/26 10:21:29;;;;;;;;;;;;;;;3.44;92.09;103209.47;5099558;28;20548;-78
2022/01/26 10:23:58;;;;;;;;;;;;;;;3.51;91.68;103203.59;5102278;28;19965;-77
2022/01/26 10:26:23;;;;;;;;;;;;;;;3.63;92.06;103212.50;5089436;28;20007;-76
2022/01/26 10:28:48;;;;;;;;;;;;;;;3.69;91.07;103205.66;5091347;28;20014;-77
2022/01/26 10:31:15;;;;;;;;;;;;;;;3.79;91.36;103205.88;5090374;28;19920;-77
2022/01/26 10:33:40;;;;;;;;;;;;;;;3.90;90.88;103201.75;5088976;28;19916;-77
2022/01/26 10:36:06;;;;;;;;;;;;;;;3.98;90.20;103196.69;5085320;28;20114;-77
2022/01/26 10:38:31;;;;;;;;;;;;;;;4.11;90.29;103190.88;5070011;28;19916;-76
2022/01/26 10:41:00;;;;;;;;;;;;;;;4.21;89.69;103193.63;5082659;28;19928;-77
2022/01/26 10:43:26;;;;;;;;;;;;;;;4.18;89.58;103179.75;5087661;28;19924;-77
2022/01/26 10:56:19;;;;;;;;;;;;;;;4.60;87.12;103156.13;5089136;28;19923;-76
2022/01/26 10:58:45;;;;;;;;;;;;;;;4.69;87.06;103158.88;5090797;28;19920;-77
2022/01/26 11:01:10;;;;;;;;;;;;;;;4.67;86.92;103149.28;5088567;28;20434;-79
2022/01/26 11:03:36;;;;;;;;;;;;;;;4.74;86.84;103136.38;5089952;28;19973;-77
2022/01/26 11:06:16;;;;;;;;;;;;;;;4.78;87.72;103146.00;5088516;28;20380;-77
2022/01/26 11:08:42;;;;;;;;;;;;;;;4.77;86.37;103138.16;5089572;28;20368;-75
2022/01/26 11:11:17;;;;;;;;;;;;;;;4.74;86.58;103136.38;5096048;28;19920;-77
2022/01/26 11:13:42;;;;;;;;;;;;;;;4.76;86.79;103131.19;5068822;28;20392;-75
2022/01/26 11:16:23;;;;;;;;;;;;;;;4.71;86.51;103140.66;5069224;28;19917;-74
2022/01/26 11:19:04;;;;;;;;;;;;;;;4.74;87.02;103143.31;5093603;28;20607;-76
2022/01/26 11:21:30;;;;;;;;;;;;;;;4.82;86.95;103135.63;5092637;28;19921;-76
2022/01/26 11:24:11;;;;;;;;;;;;;;;4.83;85.97;103134.78;5100499;27;19916;-75
2022/01/26 11:29:35;;;;;;;;;;;;;;;4.89;86.42;103121.81;5087031;28;20266;-76
2022/01/26 11:32:21;;;;;;;;;;;;;;;5.00;86.25;103117.63;5086708;28;19951;-75
2022/01/26 11:34:48;;;;;;;;;;;;;;;5.08;86.64;103121.22;5085977;28;19923;-75
2022/01/26 11:37:16;;;;;;;;;;;;;;;5.04;86.24;103122.03;5075753;28;19917;-76
2022/01/26 11:45:24;;;;;;;;;;;;;;;5.03;86.97;103135.03;5086377;28;19916;-76
2022/01/26 11:48:07;;;;;;;;;;;;;;;5.11;87.55;103138.63;5087205;28;20317;-77
2022/01/26 11:50:33;;;;;;;;;;;;;;;5.14;87.12;103132.59;5074406;28;19920;-76
2022/01/26 11:53:00;;;;;;;;;;;;;;;5.13;86.88;103128.22;5068696;28;20427;-76
2022/01/26 11:55:31;;;;;;;;;;;;;;;5.07;87.20;103136.84;5088519;28;19916;-77
2022/01/26 11:58:11;;;;;;;;;;;;;;;5.05;87.45;103135.94;5087864;28;19916;-78
2022/01/26 12:00:43;;;;;;;;;;;;;;;5.01;88.25;103140.22;5071129;28;20600;-78
2022/01/26 12:03:24;;;;;;;;;;;;;;;5.04;88.33;103139.38;5087904;28;20322;-77
2022/01/26 12:05:52;;;;;;;;;;;;;;;5.14;88.17;103137.81;5088721;28;19916;-77
2022/01/26 12:08:26;;;;;;;;;;;;;;;5.14;87.68;103127.38;5105510;28;19923;-78
2022/01/26 12:10:52;;;;;;;;;;;;;;;5.14;87.44;103127.38;5096972;28;20281;-78
2022/01/26 12:13:20;;;;;;;;;;;;;;;5.16;87.88;103120.47;5089104;28;19927;-77
2022/01/26 12:43:39;;;;;;;;;;;;;;;5.15;90.38;103118.72;5090318;28;20312;-78
2022/01/26 12:46:06;;;;;;;;;;;;;;;5.13;89.66;103102.16;5089608;28;20010;-78
2022/01/26 12:48:34;;;;;;;;;;;;;;;5.22;90.63;103110.09;5092445;28;19920;-78
2022/01/26 12:51:00;;;;;;;;;;;;;;;5.25;90.14;103105.78;5070670;28;19923;-78
2022/01/26 12:53:25;;;;;;;;;;;;;;;5.32;89.99;103106.75;5071766;28;19920;-76
2022/01/26 12:56:06;;;;;;;;;;;;;;;5.35;90.14;103106.78;5093630;28;19916;-78
2022/01/26 12:58:33;;;;;;;;;;;;;;;5.38;90.77;103103.34;5107014;27;19923;-79
2022/01/26 13:01:13;;;;;;;;;;;;;;;5.39;90.00;103103.38;5093307;28;19920;-79
2022/01/26 13:03:39;;;;;;;;;;;;;;;5.36;90.67;103097.22;5105983;28;19920;-77
2022/01/26 13:06:21;;;;;;;;;;;;;;;5.36;89.82;103094.63;5097001;28;20349;-78
2022/01/26 13:09:02;;;;;;;;;;;;;;;5.40;90.41;103092.06;5093325;28;19934;-78
2022/01/26 13:11:29;;;;;;;;;;;;;;;5.32;90.50;103095.47;5092039;28;19924;-79
2022/01/26 13:19:56;;;;;;;;;;;;;;;5.47;90.91;103073.91;5096455;27;19916;-75
2022/01/26 14:02:19;;;;;;;;;;;;;;;5.70;90.83;103071.50;5105832;27;19969;-75
2022/01/26 14:04:44;;;;;;;;;;;;;;;5.76;91.22;103063.75;5088657;28;20013;-75
2022/01/26 14:07:09;;;;;;;;;;;;;;;5.73;91.52;103061.13;5087582;28;19927;-75
2022/01/26 14:09:36;;;;;;;;;;;;;;;5.83;91.74;103069.91;5088365;28;20444;-75
2022/01/26 14:12:02;;;;;;;;;;;;;;;5.87;91.18;103074.28;5101318;28;19930;-76
2022/01/26 14:17:15;;;;;;;;;;;;;;;5.77;91.09;103073.34;5110486;27;19920;-77
2022/01/26 14:20:07;;;;;;;;;;;;;;;5.76;91.92;103061.16;5097093;28;20002;-76
2022/01/26 14:27:51;;;;;;;;;;;;;;;5.73;91.64;103053.28;5096455;28;19975;-76
2022/01/26 14:30:29;;;;;;;;;;;;;;;5.78;92.01;103051.63;5106068;28;19942;-75
2022/01/26 14:40:54;;;;;;;;;;;;;;;5.82;91.62;103034.25;5076829;28;19931;-75
2022/01/26 15:34:16;;;;;;;;;;;;;;;5.34;95.38;103012.94;5077925;28;19931;-79
2022/01/26 15:44:46;;;;;;;;;;;;;;;5.43;94.83;103005.22;5086538;28;19927;-77
2022/01/26 15:49:56;;;;;;;;;;;;;;;5.48;95.19;103007.88;5089514;28;20050;-78
2022/01/26 15:52:48;;;;;;;;;;;;;;;5.48;95.79;103003.50;5089206;28;20443;-78
2022/01/26 15:57:57;;;;;;;;;;;;;;;5.49;94.75;103020.03;5082682;28;19920;-78
2022/01/26 16:26:30;;;;;;;;;;;;;;;5.45;96.10;103011.31;5089807;28;19921;-75
2022/01/26 18:17:00;;;;;;;;;;;;;;;5.08;98.68;102971.84;5078817;28;19989;-74
2022/01/26 18:40:47;;;;;;;;;;;;;;;5.11;98.40;102930.19;5067789;28;19931;-74
2022/01/26 18:51:15;;;;;;;;;;;;;;;5.26;98.87;102919.03;5092451;28;20047;-73
2022/01/26 18:53:40;;;;;;;;;;;;;;;5.31;97.86;102916.47;5090902;28;20784;-72
2022/01/26 18:56:05;;;;;;;;;;;;;;;5.26;98.71;102893.84;5091538;28;19916;-72
2022/01/26 18:58:31;;;;;;;;;;;;;;;5.30;99.22;102894.72;5087378;28;19927;-73
2022/01/26 19:00:56;;;;;;;;;;;;;;;5.31;98.48;102895.63;5089927;28;20347;-72
2022/01/26 19:03:21;;;;;;;;;;;;;;;5.28;98.26;102890.38;5089038;28;19920;-73
2022/01/26 19:05:46;;;;;;;;;;;;;;;5.26;98.45;102879.94;5095112;28;19943;-72
2022/01/26 19:08:13;;;;;;;;;;;;;;;5.25;99.16;102878.19;5087774;28;19920;-73
2022/01/26 19:10:38;;;;;;;;;;;;;;;5.26;98.10;102883.41;5098526;28;20016;-73
2022/01/26 19:13:04;;;;;;;;;;;;;;;5.25;98.66;102870.38;5092518;28;19956;-75
2022/01/26 19:15:32;;;;;;;;;;;;;;;5.21;98.65;102858.16;5091662;28;19916;-73
2022/01/26 19:18:03;;;;;;;;;;;;;;;5.19;98.22;102847.75;5092141;27;19973;-74
2022/01/26 19:25:56;;;;;;;;;;;;;;;5.16;98.29;102850.31;5089362;28;19916;-74
2022/01/26 19:52:32;;;;;;;;;;;;;;;5.15;97.96;102822.50;5081864;28;19920;-73
2022/01/26 19:54:58;;;;;;;;;;;;;;;5.17;97.44;102823.41;5082276;28;19978;-73
2022/01/26 19:57:23;;;;;;;;;;;;;;;5.16;98.21;102821.66;5088641;28;20389;-73
2022/01/26 19:59:48;;;;;;;;;;;;;;;5.16;98.09;102823.41;5089182;28;19947;-74
2022/01/26 20:02:14;;;;;;;;;;;;;;;5.18;97.80;102819.06;5086961;28;19916;-73
2022/01/26 20:04:39;;;;;;;;;;;;;;;5.18;97.64;102812.13;5090546;28;19999;-73
2022/01/26 20:07:11;;;;;;;;;;;;;;;5.17;97.40;102809.50;5087194;28;19923;-72
2022/01/26 20:09:41;;;;;;;;;;;;;;;5.13;98.69;102820.75;5087375;28;19923;-73
2022/01/26 20:12:15;;;;;;;;;;;;;;;5.09;98.04;102812.91;5105813;28;19920;-74
2022/01/26 20:14:41;;;;;;;;;;;;;;;5.08;98.39;102810.31;5094550;28;19927;-73
2022/01/26 20:17:07;;;;;;;;;;;;;;;5.03;98.51;102802.44;5087118;28;19920;-72
2022/01/26 20:19:33;;;;;;;;;;;;;;;4.99;98.20;102802.41;5098277;28;19919;-74
2022/01/26 20:21:58;;;;;;;;;;;;;;;4.89;97.65;102799.75;5087591;28;19926;-73
2022/01/26 20:24:23;;;;;;;;;;;;;;;4.87;97.67;102800.56;5087038;28;20010;-72
2022/01/26 20:26:52;;;;;;;;;;;;;;;4.84;97.42;102800.56;5089420;28;20340;-73
2022/01/26 20:29:18;;;;;;;;;;;;;;;4.86;96.58;102809.22;5086565;28;19920;-73
2022/01/26 20:31:43;;;;;;;;;;;;;;;4.85;96.05;102810.97;5088373;28;20007;-72
2022/01/26 20:34:10;;;;;;;;;;;;;;;4.86;95.91;102810.13;5087186;28;20057;-73
2022/01/26 20:36:35;;;;;;;;;;;;;;;4.87;96.01;102808.38;5085449;28;19916;-72
2022/01/26 20:39:02;;;;;;;;;;;;;;;4.94;94.60;102804.97;5084433;28;19928;-72
2022/01/26 20:41:27;;;;;;;;;;;;;;;4.97;94.12;102793.72;5070859;28;20399;-73
2022/01/26 20:43:53;;;;;;;;;;;;;;;4.98;93.58;102791.09;5088254;28;19932;-71
2022/01/26 20:46:18;;;;;;;;;;;;;;;4.99;93.15;102779.84;5085168;28;20470;-72
2022/01/26 20:48:44;;;;;;;;;;;;;;;4.97;93.23;102775.47;5093105;28;20304;-73
2022/01/26 20:51:09;;;;;;;;;;;;;;;5.01;92.54;102770.31;5088201;28;20380;-73
2022/01/26 20:53:34;;;;;;;;;;;;;;;5.05;90.93;102764.28;5086936;28;19927;-74
2022/01/26 20:56:00;;;;;;;;;;;;;;;4.97;91.15;102767.66;5087154;28;20258;-75
2022/01/26 20:58:26;;;;;;;;;;;;;;;4.93;91.05;102761.56;5084649;28;20031;-74
2022/01/26 21:00:51;;;;;;;;;;;;;;;4.89;91.50;102762.38;5086846;28;19924;-72
2022/01/26 21:03:18;;;;;;;;;;;;;;;4.90;91.94;102770.22;5084346;28;19927;-74
2022/01/26 21:05:43;;;;;;;;;;;;;;;4.90;91.99;102761.53;5087527;28;19977;-73
2022/01/26 21:08:08;;;;;;;;;;;;;;;4.92;91.98;102765.88;5086531;28;19916;-73
2022/01/26 21:10:34;;;;;;;;;;;;;;;4.95;92.49;102767.66;5088167;28;20340;-72
2022/01/26 21:12:59;;;;;;;;;;;;;;;4.95;92.23;102772.88;5088046;28;19916;-73
2022/01/26 21:15:25;;;;;;;;;;;;;;;4.91;93.10;102769.34;5086019;28;20338;-74
2022/01/26 21:17:50;;;;;;;;;;;;;;;4.90;92.42;102765.03;5084075;28;19986;-73